Aircraft
UPR1017 PT-GAB C172
SBSL
Marechal Cunha Machado International Airport
SNXH
Itapecuru Airport
Pilot:: Alex
Aircraft:: C172SP G1000 Cargo
Alternate: SBSL
Network: poscon
FLIGHT DETAILS
Distance: 117nm Duration 00h 58m
Cruise Speed: Flight Level: 2000
Validation: Validated Type Charter
Flight Fuel
ZFW: 732
Block Fuel/Initial FOB: 141
Flight Fuel: 43
Cargo
Passengers: 2
Cargo: 82
ROUTE
ROUTE: DCT
REMARKS:
DATE
Date: 26-08-31
Departure Time: 2135
Cargo: 82
FLIGHT DETAILS
Crashed: No
Validator Comments: Validado por Claudenir
Flight Rating: 90
LANDING ANALYSIS
Landing wind: 101º/4 kt
Landing heading: 95º
Landing VS:: -704 ft/min
Landing IAS:: 58 kt
Landing Force G: 1.6 G
Landing Bank: 2
Landing Pitch: -3
Landing Flaps: 66
Navigation Lights: ON
Landing Lights: ON
Beacon Lights: ON
Strobe Lights: ON
viserfly

ALTITUDE CHART

viserfly

MAIN EVENTS

DATE EVENT IAS ALTITUDE
2026-08-31 21:34:42 FLYacars version 1.3.6 0 153
2026-08-31 21:34:43 Aircraft boarding in progress 0 153
2026-08-31 21:34:43 FLAPS 33% 0 153
2026-08-31 21:34:43 Navigation Lights ON 0 153
2026-08-31 21:34:43 Beacon Lights ON 0 153
2026-08-31 21:34:43 Strobe Lights ON 0 153
2026-08-31 21:34:43 Landing Lights ON 0 153
2026-08-31 21:34:43 Starting Engine 1 0 153
2026-08-31 21:35:14 Taxi Lights ON 0 153
2026-08-31 21:35:19 Aircraft taxiing to runway 3 153
2026-08-31 21:35:51 Detected Take-off roll, HDG 233, IAS 67kt, GS 88kt, G-force 1.0g, Pitch -4.4deg, Bank -12.7deg, Wind 080/16kt, Temp 29°C 67 159
2026-08-31 21:35:51 Airborne 67 159
2026-08-31 21:35:58 FLAPS 0% 75kt, ALT 220ft 75 220
2026-08-31 21:37:22 Aircraft on Top Of Climb at 1814ft, IAS 95kt, GS 103kt, HDG 183deg, TAT 24deg, WIND 79/16kt 95 1814
2026-08-31 22:31:38 Aircraft on Top Of Descent at 1498ft, IAS 124kt, GS 128kt, HDG 203deg, TAT 27deg, WIND 99/14kt 124 1498
2026-08-31 22:33:17 FLAPS 33% 85kt, ALT 548ft 85 548
2026-08-31 22:33:54 FLAPS 66% 73kt, ALT 294ft 73 294
2026-08-31 22:34:06 Landed at destination with a landing rate of -704fpm, G-force 1.6g, Pitch -3.2deg, Bank 1.6deg, HDG 95deg, IAS 58kt, GS 64kt, Wind 101/04kt, Temp 32°C 58 203
2026-08-31 22:34:16 Aircraft taxiing to apron 18 206
2026-08-31 22:34:20 FLAPS 33% 5 206
2026-08-31 22:34:20 FLAPS 0% 5 206
2026-08-31 22:36:26 Engine 1 shutdown 0 204
2026-08-31 22:36:35 Aircraft at gate/stand, ground services are moving into position, disembarkation has begun. Remaining FOB 98kg FLYacars v1.3.6 0 204
viserfly

ACARS DATA

DATE IAS GS ALTITUDE FUEL CONSUMED OAT FLIGHT STATUS
2026-08-31 21:35:12 0 0 153 0 29 BOARDING
2026-08-31 21:35:42 39 63 156 0 29 TAKEOFF
2026-08-31 21:36:12 80 104 427 0 29 TAKEOFF
2026-08-31 21:36:42 91 98 964 1 27 TAKEOFF
2026-08-31 21:37:12 85 99 1633 1 25 INITIAL CLIMB
2026-08-31 21:37:42 114 122 1798 2 24 INITIAL CLIMB
2026-08-31 21:38:12 129 138 1764 2 24 INITIAL CLIMB
2026-08-31 21:38:42 125 133 1764 2 24 INITIAL CLIMB
2026-08-31 21:39:12 124 133 1770 3 24 INITIAL CLIMB
2026-08-31 21:39:42 124 134 1764 3 24 INITIAL CLIMB
2026-08-31 21:40:12 118 127 1768 4 24 INITIAL CLIMB
2026-08-31 21:40:42 117 129 1770 4 25 INITIAL CLIMB
2026-08-31 21:41:12 120 130 1778 5 25 INITIAL CLIMB
2026-08-31 21:41:42 118 130 1771 5 25 INITIAL CLIMB
2026-08-31 21:42:12 117 125 1769 5 25 INITIAL CLIMB
2026-08-31 21:42:42 116 127 1774 6 25 INITIAL CLIMB
2026-08-31 21:43:12 118 126 1767 6 25 INITIAL CLIMB
2026-08-31 21:43:42 112 120 1765 7 25 INITIAL CLIMB
2026-08-31 21:44:12 114 123 1774 7 25 INITIAL CLIMB
2026-08-31 21:44:42 120 127 1792 7 25 INITIAL CLIMB
2026-08-31 21:45:12 133 135 1765 8 25 INITIAL CLIMB
2026-08-31 21:45:42 122 130 1769 8 25 INITIAL CLIMB
2026-08-31 21:46:12 117 121 1771 8 25 INITIAL CLIMB
2026-08-31 21:46:42 124 131 1763 9 25 INITIAL CLIMB
2026-08-31 21:47:12 117 126 1762 9 25 INITIAL CLIMB
2026-08-31 21:47:42 113 123 1763 10 25 INITIAL CLIMB
2026-08-31 21:48:12 114 119 1759 10 25 INITIAL CLIMB
2026-08-31 21:48:42 113 124 1771 10 25 INITIAL CLIMB
2026-08-31 21:49:12 119 122 1773 11 25 INITIAL CLIMB
2026-08-31 21:49:43 117 121 1775 11 25 INITIAL CLIMB
2026-08-31 21:50:12 115 121 1773 11 25 INITIAL CLIMB
2026-08-31 21:50:43 115 124 1776 12 25 INITIAL CLIMB
2026-08-31 21:51:12 110 125 1768 12 25 INITIAL CLIMB
2026-08-31 21:51:43 112 120 1765 12 25 INITIAL CLIMB
2026-08-31 21:52:13 112 121 1773 13 25 INITIAL CLIMB
2026-08-31 21:52:42 114 123 1779 13 25 INITIAL CLIMB
2026-08-31 21:53:13 119 123 1783 13 25 INITIAL CLIMB
2026-08-31 21:53:43 115 121 1775 14 25 INITIAL CLIMB
2026-08-31 21:54:13 117 125 1761 14 25 INITIAL CLIMB
2026-08-31 21:54:43 113 123 1766 15 25 INITIAL CLIMB
2026-08-31 21:55:12 119 129 1766 15 25 INITIAL CLIMB
2026-08-31 21:55:42 112 124 1758 15 25 INITIAL CLIMB
2026-08-31 21:56:12 113 121 1762 16 25 INITIAL CLIMB
2026-08-31 21:56:42 115 119 1767 16 26 INITIAL CLIMB
2026-08-31 21:57:13 115 123 1765 16 26 INITIAL CLIMB
2026-08-31 21:57:43 116 123 1783 17 26 INITIAL CLIMB
2026-08-31 21:58:13 118 120 1764 17 26 INITIAL CLIMB
2026-08-31 21:58:43 104 114 1759 17 26 INITIAL CLIMB
2026-08-31 21:59:13 111 114 1766 18 26 INITIAL CLIMB
2026-08-31 21:59:43 111 118 1770 18 26 INITIAL CLIMB
2026-08-31 22:00:13 110 115 1765 18 26 INITIAL CLIMB
2026-08-31 22:00:43 107 117 1769 19 26 INITIAL CLIMB
2026-08-31 22:01:13 102 112 1771 19 26 INITIAL CLIMB
2026-08-31 22:01:43 102 108 1756 20 26 INITIAL CLIMB
2026-08-31 22:02:13 107 117 1768 20 26 INITIAL CLIMB
2026-08-31 22:02:43 117 125 1751 20 26 INITIAL CLIMB
2026-08-31 22:03:13 118 124 1767 21 26 INITIAL CLIMB
2026-08-31 22:03:43 116 125 1766 21 26 INITIAL CLIMB
2026-08-31 22:04:13 116 123 1764 21 26 INITIAL CLIMB
2026-08-31 22:04:43 120 123 1772 22 26 INITIAL CLIMB
2026-08-31 22:05:13 118 122 1771 22 25 INITIAL CLIMB
2026-08-31 22:05:43 114 120 1761 22 25 INITIAL CLIMB
2026-08-31 22:06:13 115 122 1769 23 25 INITIAL CLIMB
2026-08-31 22:06:43 115 120 1766 23 25 INITIAL CLIMB
2026-08-31 22:07:13 114 119 1755 23 25 INITIAL CLIMB
2026-08-31 22:07:43 110 117 1763 24 25 INITIAL CLIMB
2026-08-31 22:08:13 107 109 1766 24 25 INITIAL CLIMB
2026-08-31 22:08:43 114 117 1783 24 25 INITIAL CLIMB
2026-08-31 22:09:13 114 120 1769 25 25 INITIAL CLIMB
2026-08-31 22:09:43 118 126 1781 25 26 INITIAL CLIMB
2026-08-31 22:10:13 121 128 1769 26 26 INITIAL CLIMB
2026-08-31 22:10:43 122 132 1764 26 26 INITIAL CLIMB
2026-08-31 22:11:13 119 127 1761 26 26 INITIAL CLIMB
2026-08-31 22:11:43 120 129 1774 27 26 INITIAL CLIMB
2026-08-31 22:12:13 121 127 1764 27 26 INITIAL CLIMB
2026-08-31 22:12:43 120 129 1767 27 26 INITIAL CLIMB
2026-08-31 22:13:13 118 124 1763 28 25 INITIAL CLIMB
2026-08-31 22:13:43 112 118 1758 28 25 INITIAL CLIMB
2026-08-31 22:14:13 112 115 1773 28 25 INITIAL CLIMB
2026-08-31 22:14:43 114 120 1762 29 25 INITIAL CLIMB
2026-08-31 22:15:13 111 116 1761 29 25 INITIAL CLIMB
2026-08-31 22:15:43 112 117 1769 29 25 INITIAL CLIMB
2026-08-31 22:16:13 115 120 1757 30 25 INITIAL CLIMB
2026-08-31 22:16:43 112 117 1762 30 25 INITIAL CLIMB
2026-08-31 22:17:13 123 129 1782 31 25 INITIAL CLIMB
2026-08-31 22:17:43 126 131 1753 31 25 INITIAL CLIMB
2026-08-31 22:18:13 126 130 1769 31 25 INITIAL CLIMB
2026-08-31 22:18:43 121 127 1754 32 25 INITIAL CLIMB
2026-08-31 22:19:13 128 133 1762 32 25 INITIAL CLIMB
2026-08-31 22:19:43 131 134 1772 32 25 INITIAL CLIMB
2026-08-31 22:20:13 121 128 1758 33 25 INITIAL CLIMB
2026-08-31 22:20:43 124 126 1759 33 25 INITIAL CLIMB
2026-08-31 22:21:13 117 123 1758 34 26 INITIAL CLIMB
2026-08-31 22:21:43 124 126 1739 34 26 INITIAL CLIMB
2026-08-31 22:22:13 113 118 1754 34 26 INITIAL CLIMB
2026-08-31 22:22:43 119 123 1760 35 26 INITIAL CLIMB
2026-08-31 22:23:13 117 121 1761 35 26 INITIAL CLIMB
2026-08-31 22:23:43 114 121 1756 36 26 INITIAL CLIMB
2026-08-31 22:24:13 117 122 1771 36 26 INITIAL CLIMB
2026-08-31 22:24:43 111 115 1762 36 26 INITIAL CLIMB
2026-08-31 22:25:13 115 125 1775 37 26 INITIAL CLIMB
2026-08-31 22:25:43 122 130 1749 37 26 INITIAL CLIMB
2026-08-31 22:26:13 119 125 1754 37 26 INITIAL CLIMB
2026-08-31 22:26:43 119 121 1759 38 26 INITIAL CLIMB
2026-08-31 22:27:13 118 122 1767 38 26 INITIAL CLIMB
2026-08-31 22:27:43 116 121 1748 39 26 INITIAL CLIMB
2026-08-31 22:28:13 115 119 1761 39 26 INITIAL CLIMB
2026-08-31 22:28:43 124 123 1760 39 26 INITIAL CLIMB
2026-08-31 22:29:13 121 122 1766 40 26 INITIAL CLIMB
2026-08-31 22:29:43 111 115 1759 40 26 INITIAL CLIMB
2026-08-31 22:30:13 114 118 1753 41 26 INITIAL CLIMB
2026-08-31 22:30:43 107 112 1769 41 26 INITIAL CLIMB
2026-08-31 22:31:13 122 120 1778 41 26 INITIAL CLIMB
2026-08-31 22:31:43 123 133 1386 42 28 INITIAL CLIMB
2026-08-31 22:32:13 121 129 1231 42 28 INITIAL CLIMB
2026-08-31 22:32:43 135 137 834 42 31 INITIAL CLIMB
2026-08-31 22:33:13 94 94 569 42 32 INITIAL CLIMB
2026-08-31 22:33:43 77 82 389 43 32 ON FINAL
2026-08-31 22:34:13 36 41 204 43 32 ON FINAL
2026-08-31 22:34:43 0 18 204 43 32 TAXI TO APRON
2026-08-31 22:35:13 0 6 203 43 32 TAXI TO APRON
2026-08-31 22:35:43 4 13 207 43 32 TAXI TO APRON
2026-08-31 22:36:13 0 4 204 43 32 TAXI TO APRON
  • Join our VA!

    It has been 11 years of great learning, friendships, and stories.

  • Sign up now!